Time;durP1;ratioP1;P1;durP2;ratioP2;P2;SDS_P1;SDS_P2;PMS_P1;PMS_P2;Temp;Humidity;BMP_temperature;BMP_pressure;BME280_temperature;BME280_humidity;BME280_pressure;Samples;Min_cycle;Max_cycle;Signal;HPM_P1;HPM_P2
2023/12/04 00:02:32;;;;;;;;;;;;;;;-1.35;62.39;101388.19;5461780;32;34707;-78
2023/12/04 00:05:34;;;;;;;;;;;;;;;-1.62;62.90;101400.34;5466254;32;35062;-79
2023/12/04 00:08:37;;;;;;;;;;;;;;;-1.51;61.70;101392.06;5462140;32;35540;-79
2023/12/04 00:11:39;;;;;;;;;;;;;;;-0.65;61.12;101388.97;5452447;32;34835;-77
2023/12/04 00:14:42;;;;;;;;;;;;;;;-1.48;61.81;101391.25;5460835;32;35146;-74
2023/12/04 00:17:44;;;;;;;;;;;;;;;-0.53;60.53;101390.94;5462829;32;34322;-78
2023/12/04 00:20:46;;;;;;;;;;;;;;;-0.46;60.00;101387.66;5445289;32;34818;-69
2023/12/04 00:23:48;;;;;;;;;;;;;;;-0.84;61.24;101390.25;5461503;32;34828;-76
2023/12/04 00:26:50;;;;;;;;;;;;;;;-0.27;59.78;101394.97;5445892;32;34273;-75
2023/12/04 00:29:52;;;;;;;;;;;;;;;0.05;58.20;101400.78;5460841;32;34246;-74
2023/12/04 00:32:55;;;;;;;;;;;;;;;-0.18;58.36;101397.75;5465588;32;34979;-68
2023/12/04 00:35:57;;;;;;;;;;;;;;;-0.25;59.06;101395.87;5460489;32;35537;-79
2023/12/04 00:38:59;;;;;;;;;;;;;;;-0.15;59.17;101392.63;5466001;32;33442;-77
2023/12/04 00:42:01;;;;;;;;;;;;;;;0.31;57.88;101392.66;5455348;32;34961;-68
2023/12/04 00:45:04;;;;;;;;;;;;;;;-0.40;59.25;101380.91;5462116;32;34966;-79
2023/12/04 00:48:06;;;;;;;;;;;;;;;-0.12;58.94;101397.88;5466500;32;35183;-69
2023/12/04 00:51:08;;;;;;;;;;;;;;;0.25;58.14;101390.84;5461029;32;35459;-69
2023/12/04 00:54:11;;;;;;;;;;;;;;;-0.80;60.11;101392.06;5466492;32;35325;-78
2023/12/04 00:57:13;;;;;;;;;;;;;;;-1.26;61.76;101403.00;5461454;32;35293;-69
2023/12/04 01:00:16;;;;;;;;;;;;;;;-0.43;60.29;101403.25;5465582;32;34624;-67
2023/12/04 01:03:18;;;;;;;;;;;;;;;-0.17;58.95;101404.66;5461817;32;34690;-69
2023/12/04 01:06:23;;;;;;;;;;;;;;;-0.67;60.10;101400.97;5461540;32;34966;-69
2023/12/04 01:09:26;;;;;;;;;;;;;;;-0.53;59.68;101390.94;5466017;32;34533;-79
2023/12/04 01:12:28;;;;;;;;;;;;;;;-0.09;59.23;101397.94;5463061;32;34787;-79
2023/12/04 01:15:31;;;;;;;;;;;;;;;0.20;58.34;101389.91;5462642;32;35034;-78
2023/12/04 01:18:33;;;;;;;;;;;;;;;0.68;56.79;101383.84;5459091;32;34349;-74
2023/12/04 01:21:35;;;;;;;;;;;;;;;0.30;57.34;101381.44;5464080;32;35426;-68
2023/12/04 01:24:38;;;;;;;;;;;;;;;0.24;58.13;101376.16;5462679;32;34893;-68
2023/12/04 01:27:40;;;;;;;;;;;;;;;0.19;57.70;101394.19;5448113;32;34793;-68
2023/12/04 01:30:42;;;;;;;;;;;;;;;0.00;58.94;101381.75;5464802;32;34060;-68
2023/12/04 01:33:44;;;;;;;;;;;;;;;0.36;57.50;101391.03;5461624;32;35542;-68
2023/12/04 01:36:46;;;;;;;;;;;;;;;0.30;56.80;101402.13;5463629;32;34928;-69
2023/12/04 01:39:49;;;;;;;;;;;;;;;-0.23;58.63;101403.66;5463700;32;34617;-79
2023/12/04 01:42:51;;;;;;;;;;;;;;;0.37;57.11;101393.66;5454918;32;34454;-68
2023/12/04 01:45:53;;;;;;;;;;;;;;;0.56;56.23;101396.56;5468023;32;34704;-68
2023/12/04 01:48:55;;;;;;;;;;;;;;;0.67;55.90;101393.34;5468307;32;35293;-70
2023/12/04 01:51:58;;;;;;;;;;;;;;;0.80;55.47;101399.59;5471495;32;34564;-79
2023/12/04 01:55:00;;;;;;;;;;;;;;;-0.21;57.25;101405.44;5468154;32;35398;-70
2023/12/04 01:58:02;;;;;;;;;;;;;;;-0.31;59.00;101400.94;5472062;32;34262;-70
2023/12/04 02:01:05;;;;;;;;;;;;;;;-0.64;59.06;101401.06;5467538;32;34399;-69
2023/12/04 02:04:07;;;;;;;;;;;;;;;-0.05;57.44;101402.34;5470392;32;35768;-79
2023/12/04 02:07:09;;;;;;;;;;;;;;;-0.33;58.58;101408.62;5469842;32;35337;-69
2023/12/04 02:10:12;;;;;;;;;;;;;;;-0.67;59.36;101413.88;5466815;32;34985;-79
2023/12/04 02:13:15;;;;;;;;;;;;;;;0.30;57.28;101407.31;5471911;32;35171;-69
2023/12/04 02:16:17;;;;;;;;;;;;;;;0.17;57.56;101411.38;5464093;32;34861;-78
2023/12/04 02:19:19;;;;;;;;;;;;;;;0.18;57.36;101410.53;5455720;32;34690;-70
2023/12/04 02:22:21;;;;;;;;;;;;;;;0.34;56.76;101403.94;5466135;32;35362;-79
2023/12/04 02:25:23;;;;;;;;;;;;;;;-0.12;57.68;101413.37;5468930;32;34465;-70
2023/12/04 02:28:37;;;;;;;;;;;;;;;0.05;57.22;101407.66;5471665;32;35250;-71
2023/12/04 02:31:39;;;;;;;;;;;;;;;0.38;56.14;101407.44;5452372;32;34918;-70
2023/12/04 02:34:42;;;;;;;;;;;;;;;0.56;56.20;101400.03;5471363;32;34429;-75
2023/12/04 02:37:44;;;;;;;;;;;;;;;0.66;56.14;101401.94;5465646;32;35284;-68
2023/12/04 02:40:46;;;;;;;;;;;;;;;0.30;57.20;101396.09;5469658;32;35192;-79
2023/12/04 02:43:48;;;;;;;;;;;;;;;-1.37;60.33;101407.88;5466688;32;34500;-69
2023/12/04 02:46:50;;;;;;;;;;;;;;;-0.76;59.33;101414.56;5466051;32;34672;-68
2023/12/04 02:49:53;;;;;;;;;;;;;;;-0.17;58.16;101408.97;5470378;32;35613;-68
2023/12/04 02:52:55;;;;;;;;;;;;;;;0.37;56.43;101403.13;5457289;32;35540;-75
2023/12/04 02:55:57;;;;;;;;;;;;;;;0.00;57.11;101405.03;5461387;32;34989;-70
2023/12/04 02:58:59;;;;;;;;;;;;;;;0.24;57.78;101414.94;5448337;32;34798;-70
2023/12/04 03:02:01;;;;;;;;;;;;;;;0.21;57.54;101420.06;5466150;32;34253;-68
2023/12/04 03:05:04;;;;;;;;;;;;;;;-0.16;58.01;101419.31;5461996;32;35033;-69
2023/12/04 03:08:06;;;;;;;;;;;;;;;0.13;57.37;101427.69;5447883;32;35059;-68
2023/12/04 03:11:08;;;;;;;;;;;;;;;-0.72;59.80;101428.38;5451722;32;34972;-68
2023/12/04 03:14:10;;;;;;;;;;;;;;;-0.42;59.51;101423.94;5461629;32;35406;-79
2023/12/04 03:17:12;;;;;;;;;;;;;;;0.32;57.48;101415.09;5464407;32;34845;-75
2023/12/04 03:20:14;;;;;;;;;;;;;;;0.77;55.92;101412.47;5442503;32;35785;-69
2023/12/04 03:23:16;;;;;;;;;;;;;;;0.27;57.17;101407.28;5453797;32;36050;-79
2023/12/04 03:26:18;;;;;;;;;;;;;;;-0.05;57.70;101415.25;5449646;32;34756;-71
2023/12/04 03:29:21;;;;;;;;;;;;;;;-0.16;59.56;101421.91;5461819;32;34287;-69
2023/12/04 03:32:23;;;;;;;;;;;;;;;-0.42;60.01;101431.69;5465956;32;34303;-78
2023/12/04 03:35:26;;;;;;;;;;;;;;;-0.23;59.25;101434.66;5461905;32;34202;-70
2023/12/04 03:38:28;;;;;;;;;;;;;;;-0.18;59.32;101433.06;5467219;32;34578;-75
2023/12/04 03:41:30;;;;;;;;;;;;;;;-0.58;60.28;101438.22;5461674;32;34993;-69
2023/12/04 03:44:32;;;;;;;;;;;;;;;0.24;58.55;101440.81;5466778;32;34423;-75
2023/12/04 03:47:35;;;;;;;;;;;;;;;-0.03;59.29;101442.00;5462444;32;34937;-70
2023/12/04 03:50:37;;;;;;;;;;;;;;;0.75;56.49;101433.16;5452382;32;34763;-77
2023/12/04 03:53:39;;;;;;;;;;;;;;;0.15;57.40;101438.06;5467591;32;34655;-68
2023/12/04 03:56:41;;;;;;;;;;;;;;;0.43;57.15;101437.72;5428134;32;34834;-76
2023/12/04 03:59:44;;;;;;;;;;;;;;;0.21;57.46;101444.22;5466341;32;35364;-70
2023/12/04 04:02:46;;;;;;;;;;;;;;;0.07;57.98;101440.50;5443804;32;34802;-68
2023/12/04 04:05:49;;;;;;;;;;;;;;;-0.31;59.22;101440.53;5464905;32;34957;-78
2023/12/04 04:08:52;;;;;;;;;;;;;;;0.34;57.31;101424.63;5462391;32;34323;-70
2023/12/04 04:11:54;;;;;;;;;;;;;;;-0.04;58.18;101419.56;5461783;32;35458;-79
2023/12/04 04:14:57;;;;;;;;;;;;;;;0.19;57.42;101426.91;5465333;32;34711;-79
2023/12/04 04:17:59;;;;;;;;;;;;;;;0.34;57.14;101427.22;5437200;32;35231;-78
2023/12/04 04:21:01;;;;;;;;;;;;;;;0.25;57.10;101421.84;5465190;32;35084;-70
2023/12/04 04:24:03;;;;;;;;;;;;;;;0.17;57.31;101426.87;5461902;32;34896;-70
2023/12/04 04:27:05;;;;;;;;;;;;;;;-0.28;58.22;101434.56;5466073;32;35075;-71
2023/12/04 04:30:08;;;;;;;;;;;;;;;-0.21;58.65;101422.66;5462951;32;34408;-68
2023/12/04 04:33:11;;;;;;;;;;;;;;;-0.60;59.94;101403.72;5446324;32;34671;-78
2023/12/04 04:36:13;;;;;;;;;;;;;;;-0.07;59.07;101413.47;5457338;32;33431;-78
2023/12/04 04:39:15;;;;;;;;;;;;;;;-0.52;60.28;101421.09;5461042;32;35400;-78
2023/12/04 04:42:17;;;;;;;;;;;;;;;-0.35;59.65;101424.94;5465996;32;35247;-67
2023/12/04 04:45:20;;;;;;;;;;;;;;;-0.59;59.64;101435.56;5461180;32;34739;-74
2023/12/04 04:48:22;;;;;;;;;;;;;;;-0.75;61.04;101429.19;5464894;32;34175;-75
2023/12/04 04:51:24;;;;;;;;;;;;;;;-0.46;60.43;101434.16;5463428;32;35440;-78
2023/12/04 04:54:26;;;;;;;;;;;;;;;-0.92;61.60;101433.94;5461797;32;35107;-78
2023/12/04 04:57:28;;;;;;;;;;;;;;;-0.71;60.89;101425.88;5466101;32;34868;-69
2023/12/04 05:00:30;;;;;;;;;;;;;;;-1.02;61.66;101428.53;5460797;32;34621;-69
2023/12/04 05:03:33;;;;;;;;;;;;;;;-1.17;62.21;101429.87;5466579;32;35056;-79
2023/12/04 05:06:35;;;;;;;;;;;;;;;-0.37;60.46;101431.78;5461191;32;34998;-70
2023/12/04 05:09:37;;;;;;;;;;;;;;;-0.80;61.29;101435.97;5463013;32;34270;-78
2023/12/04 05:12:40;;;;;;;;;;;;;;;-1.39;63.99;101443.09;5462426;32;35589;-69
2023/12/04 05:15:42;;;;;;;;;;;;;;;-1.59;65.20;101452.88;5456836;32;34817;-79
2023/12/04 05:18:44;;;;;;;;;;;;;;;-1.71;65.33;101442.22;5464471;32;34436;-69
2023/12/04 05:21:46;;;;;;;;;;;;;;;-0.78;63.22;101447.19;5461047;32;35079;-75
2023/12/04 05:24:48;;;;;;;;;;;;;;;-0.85;62.69;101448.75;5465829;32;35025;-79
2023/12/04 05:27:51;;;;;;;;;;;;;;;-1.75;66.16;101451.56;5461593;32;34582;-69
2023/12/04 05:30:53;;;;;;;;;;;;;;;-0.92;64.05;101440.81;5461735;32;35073;-78
2023/12/04 05:33:55;;;;;;;;;;;;;;;-0.83;63.93;101447.09;5464079;32;35449;-68
2023/12/04 05:36:58;;;;;;;;;;;;;;;-0.90;63.04;101444.31;5445520;32;35057;-69
2023/12/04 05:40:00;;;;;;;;;;;;;;;-1.33;64.56;101453.56;5465060;32;36214;-78
2023/12/04 05:43:02;;;;;;;;;;;;;;;-1.08;64.41;101444.75;5459774;32;34852;-70
2023/12/04 05:46:05;;;;;;;;;;;;;;;-1.51;65.01;101442.75;5464789;32;35183;-69
2023/12/04 05:49:07;;;;;;;;;;;;;;;-1.05;64.18;101441.34;5460372;32;34794;-79
2023/12/04 05:52:09;;;;;;;;;;;;;;;-0.23;61.66;101450.16;5462087;32;34643;-79
2023/12/04 05:55:11;;;;;;;;;;;;;;;-0.25;61.29;101442.41;5463717;32;34913;-79
2023/12/04 05:58:14;;;;;;;;;;;;;;;-0.65;62.01;101444.06;5461310;32;34410;-76
2023/12/04 06:01:16;;;;;;;;;;;;;;;-0.70;63.04;101447.37;5464707;32;35376;-79
2023/12/04 06:04:18;;;;;;;;;;;;;;;-0.60;63.05;101450.19;5460486;32;35546;-79
2023/12/04 06:07:20;;;;;;;;;;;;;;;-0.77;63.01;101450.63;5465046;32;34778;-75
2023/12/04 06:10:22;;;;;;;;;;;;;;;-1.03;64.36;101458.66;5449014;32;36757;-81
2023/12/04 06:13:24;;;;;;;;;;;;;;;-0.55;62.67;101458.94;5462902;32;34711;-74
2023/12/04 06:16:26;;;;;;;;;;;;;;;-0.91;62.97;101458.03;5461095;32;34841;-72
2023/12/04 06:19:29;;;;;;;;;;;;;;;-0.71;62.92;101464.59;5454467;32;35984;-70
2023/12/04 06:22:31;;;;;;;;;;;;;;;-0.69;62.91;101465.50;5463936;32;35488;-77
2023/12/04 06:25:33;;;;;;;;;;;;;;;-0.45;61.86;101459.12;5459360;32;36016;-70
2023/12/04 06:28:36;;;;;;;;;;;;;;;0.12;60.79;101448.31;5467873;32;34570;-74
2023/12/04 06:31:38;;;;;;;;;;;;;;;-0.50;61.52;101450.44;5447037;32;36109;-79
2023/12/04 06:34:40;;;;;;;;;;;;;;;-0.06;61.64;101454.00;5463370;32;34470;-85
2023/12/04 06:37:43;;;;;;;;;;;;;;;0.08;60.54;101462.03;5463766;32;35009;-71
2023/12/04 06:40:45;;;;;;;;;;;;;;;-0.79;62.37;101468.69;5440837;32;35359;-70
2023/12/04 06:43:47;;;;;;;;;;;;;;;-0.59;62.63;101477.75;5464820;32;34106;-73
2023/12/04 06:46:54;;;;;;;;;;;;;;;-0.79;63.18;101466.09;5456259;32;34901;-67
2023/12/04 06:49:56;;;;;;;;;;;;;;;-0.28;61.67;101465.56;5462268;32;35599;-69
2023/12/04 06:52:58;;;;;;;;;;;;;;;-0.57;62.51;101475.25;5455614;32;35467;-65
2023/12/04 06:55:59;;;;;;;;;;;;;;;0.24;59.75;101469.25;5456665;32;34341;-67
2023/12/04 06:59:01;;;;;;;;;;;;;;;0.21;59.71;101469.19;5462196;32;35348;-69
2023/12/04 07:02:05;;;;;;;;;;;;;;;-0.56;59.82;101472.69;5450405;32;32711;-72
2023/12/04 07:05:07;;;;;;;;;;;;;;;-0.48;59.68;101469.41;5447507;32;34930;-68
2023/12/04 07:08:10;;;;;;;;;;;;;;;-0.48;59.05;101474.56;5456808;32;33936;-73
2023/12/04 07:11:14;;;;;;;;;;;;;;;-0.47;59.40;101482.34;5455918;32;34222;-68
2023/12/04 07:14:16;;;;;;;;;;;;;;;0.16;58.58;101486.31;5455603;32;35076;-70
2023/12/04 07:17:22;;;;;;;;;;;;;;;0.81;54.96;101490.19;5457384;32;35146;-72
2023/12/04 07:20:24;;;;;;;;;;;;;;;0.48;55.37;101487.84;5461081;32;34601;-72
2023/12/04 07:23:26;;;;;;;;;;;;;;;0.13;56.61;101486.25;5443999;32;35194;-70
2023/12/04 07:26:28;;;;;;;;;;;;;;;-0.11;57.98;101486.62;5456229;32;34129;-70
2023/12/04 07:29:30;;;;;;;;;;;;;;;-0.04;57.68;101481.59;5441021;32;34305;-71
2023/12/04 07:32:35;;;;;;;;;;;;;;;0.27;56.93;101487.44;5446488;32;35987;-73
2023/12/04 07:35:37;;;;;;;;;;;;;;;0.14;57.34;101490.59;5444189;32;35789;-78
2023/12/04 07:38:39;;;;;;;;;;;;;;;-0.74;59.80;101494.63;5440793;32;34098;-70
2023/12/04 07:41:41;;;;;;;;;;;;;;;-0.70;60.82;101492.16;5459539;32;33787;-73
2023/12/04 07:44:43;;;;;;;;;;;;;;;0.59;57.38;101501.00;5454206;32;34579;-70
2023/12/04 07:47:45;;;;;;;;;;;;;;;-0.73;59.96;101499.81;5456921;32;36011;-70
2023/12/04 07:50:48;;;;;;;;;;;;;;;-0.51;59.83;101496.06;5453184;32;35579;-72
2023/12/04 07:53:49;;;;;;;;;;;;;;;0.01;57.72;101496.34;5434240;32;35320;-71
2023/12/04 07:56:53;;;;;;;;;;;;;;;0.27;57.36;101495.19;5439180;32;35210;-80
2023/12/04 07:59:55;;;;;;;;;;;;;;;0.43;57.65;101498.94;5458754;32;34275;-68
2023/12/04 08:02:57;;;;;;;;;;;;;;;0.56;56.05;101510.41;5456720;32;34797;-69
2023/12/04 08:05:59;;;;;;;;;;;;;;;0.19;56.87;101494.13;5407204;32;37160;-75
2023/12/04 08:09:09;;;;;;;;;;;;;;;-0.33;59.56;101498.16;5439252;32;34470;-70
2023/12/04 08:12:12;;;;;;;;;;;;;;;0.23;58.51;101494.25;5456749;32;34283;-71
2023/12/04 08:15:14;;;;;;;;;;;;;;;0.73;57.57;101496.94;5453627;32;34189;-69
2023/12/04 08:18:16;;;;;;;;;;;;;;;1.37;53.55;101468.72;5441108;32;35672;-70
2023/12/04 08:21:18;;;;;;;;;;;;;;;0.87;55.54;101488.56;5457984;32;34359;-71
2023/12/04 08:24:21;;;;;;;;;;;;;;;0.30;58.37;101497.81;5465240;32;35376;-80
2023/12/04 08:27:24;;;;;;;;;;;;;;;0.31;58.20;101501.28;5458749;32;33621;-68
2023/12/04 08:30:27;;;;;;;;;;;;;;;0.24;58.17;101505.44;5465335;32;34348;-72
2023/12/04 08:33:29;;;;;;;;;;;;;;;1.48;54.49;101495.66;5458279;32;35763;-67
2023/12/04 08:36:31;;;;;;;;;;;;;;;0.68;56.89;101503.75;5445678;32;35601;-80
2023/12/04 08:39:47;;;;;;;;;;;;;;;0.84;58.19;101499.75;5452993;32;34823;-70
2023/12/04 08:42:49;;;;;;;;;;;;;;;1.43;54.79;101484.34;5459300;32;34283;-71
2023/12/04 08:45:51;;;;;;;;;;;;;;;1.22;56.28;101494.34;5456828;32;35513;-74
2023/12/04 08:48:53;;;;;;;;;;;;;;;0.73;57.96;101501.25;5442719;32;34305;-75
2023/12/04 08:51:55;;;;;;;;;;;;;;;0.70;57.36;101507.22;5443388;32;35366;-69
2023/12/04 08:54:57;;;;;;;;;;;;;;;1.45;56.28;101498.19;5451722;32;35528;-71
2023/12/04 08:58:04;;;;;;;;;;;;;;;1.52;54.35;101494.84;5445512;32;35528;-73
2023/12/04 09:01:07;;;;;;;;;;;;;;;1.44;55.22;101487.81;5427308;32;34367;-76
2023/12/04 09:04:10;;;;;;;;;;;;;;;1.69;55.00;101496.81;5412043;32;34414;-75
2023/12/04 09:07:12;;;;;;;;;;;;;;;1.65;55.55;101475.16;5435310;32;36354;-70
2023/12/04 09:10:34;;;;;;;;;;;;;;;1.48;56.11;101489.56;5443089;32;34598;-68
2023/12/04 09:13:56;;;;;;;;;;;;;;;2.49;53.23;101493.56;5447385;32;34628;-71
2023/12/04 09:16:58;;;;;;;;;;;;;;;2.60;53.37;101486.75;5456747;32;34210;-70
2023/12/04 09:20:00;;;;;;;;;;;;;;;1.66;55.49;101497.63;5438348;32;35600;-71
2023/12/04 09:23:03;;;;;;;;;;;;;;;2.76;52.21;101498.16;5408232;32;35772;-65
2023/12/04 09:26:11;;;;;;;;;;;;;;;2.29;54.04;101488.13;5449332;32;34755;-73
2023/12/04 09:29:15;;;;;;;;;;;;;;;1.90;55.12;101490.22;5455574;32;34219;-68
2023/12/04 09:32:17;;;;;;;;;;;;;;;1.85;55.23;101499.66;5430117;32;36575;-68
2023/12/04 09:35:19;;;;;;;;;;;;;;;2.29;54.46;101483.81;5439279;32;36086;-66
2023/12/04 09:38:22;;;;;;;;;;;;;;;2.33;53.74;101480.41;5452359;32;33610;-71
2023/12/04 09:41:29;;;;;;;;;;;;;;;1.79;55.18;101480.53;5440828;32;34090;-74
2023/12/04 09:44:31;;;;;;;;;;;;;;;2.30;53.99;101458.72;5445753;32;34954;-75
2023/12/04 09:47:34;;;;;;;;;;;;;;;1.25;55.51;101455.56;5452736;32;36132;-69
2023/12/04 09:50:36;;;;;;;;;;;;;;;2.72;52.74;101455.75;5450338;32;35299;-68
2023/12/04 09:53:38;;;;;;;;;;;;;;;1.75;53.38;101455.44;5451973;32;35410;-74
2023/12/04 09:56:41;;;;;;;;;;;;;;;2.43;53.14;101443.31;5432228;32;35116;-72
2023/12/04 09:59:44;;;;;;;;;;;;;;;1.52;54.51;101453.38;5446066;32;33734;-69
2023/12/04 10:02:46;;;;;;;;;;;;;;;2.72;51.80;101438.44;5454720;32;33931;-75
2023/12/04 10:05:48;;;;;;;;;;;;;;;2.94;50.72;101433.44;5439789;32;35048;-74
2023/12/04 10:08:50;;;;;;;;;;;;;;;2.07;52.85;101430.81;5438466;32;34496;-72
2023/12/04 10:11:53;;;;;;;;;;;;;;;2.44;51.46;101434.69;5443025;32;37055;-70
2023/12/04 10:15:05;;;;;;;;;;;;;;;1.77;51.84;101427.81;5438315;32;34967;-69
2023/12/04 10:18:08;;;;;;;;;;;;;;;2.13;50.92;101424.84;5446072;32;35679;-69
2023/12/04 10:21:10;;;;;;;;;;;;;;;2.72;48.90;101406.44;5446411;32;34206;-69
2023/12/04 10:24:35;;;;;;;;;;;;;;;2.34;50.92;101413.81;5446310;32;34518;-71
2023/12/04 10:27:37;;;;;;;;;;;;;;;2.33;51.04;101405.16;5435195;32;34199;-75
2023/12/04 10:30:39;;;;;;;;;;;;;;;1.94;52.53;101404.72;5436226;32;34882;-68
2023/12/04 10:33:41;;;;;;;;;;;;;;;2.02;51.14;101395.31;5452356;32;34123;-73
2023/12/04 10:36:45;;;;;;;;;;;;;;;2.92;48.88;101388.41;5446672;32;35575;-66
2023/12/04 10:39:48;;;;;;;;;;;;;;;2.71;49.38;101384.78;5444465;32;35430;-68
2023/12/04 10:42:51;;;;;;;;;;;;;;;1.69;51.98;101386.25;5442618;32;34249;-67
2023/12/04 10:45:54;;;;;;;;;;;;;;;2.67;49.92;101384.75;5453170;32;35609;-78
2023/12/04 10:48:56;;;;;;;;;;;;;;;2.91;49.05;101374.56;5458719;32;34887;-75
2023/12/04 10:52:02;;;;;;;;;;;;;;;3.16;48.57;101372.16;5447461;32;34363;-75
2023/12/04 10:55:06;;;;;;;;;;;;;;;3.01;48.69;101369.44;5455934;32;34855;-78
2023/12/04 10:58:12;;;;;;;;;;;;;;;2.86;48.46;101362.41;5460484;32;34263;-74
2023/12/04 11:01:14;;;;;;;;;;;;;;;3.38;48.49;101362.75;5461980;32;33969;-79
2023/12/04 11:04:17;;;;;;;;;;;;;;;5.43;43.29;101354.44;5444922;32;34369;-71
2023/12/04 11:07:19;;;;;;;;;;;;;;;5.83;41.07;101349.06;5447204;32;34078;-70
2023/12/04 11:10:24;;;;;;;;;;;;;;;5.60;41.52;101341.34;5455770;32;34298;-74
2023/12/04 11:13:26;;;;;;;;;;;;;;;5.14;42.78;101330.16;5442886;32;35715;-80
2023/12/04 11:16:36;;;;;;;;;;;;;;;4.89;44.10;101335.41;5454676;32;34237;-68
2023/12/04 11:19:55;;;;;;;;;;;;;;;5.24;42.14;101329.28;5457962;32;34310;-70
2023/12/04 11:22:58;;;;;;;;;;;;;;;5.78;41.65;101332.56;5440258;32;35952;-67
2023/12/04 11:26:01;;;;;;;;;;;;;;;6.55;39.84;101322.56;5456372;32;37315;-75
2023/12/04 11:29:03;;;;;;;;;;;;;;;7.58;38.18;101314.56;5445156;32;35948;-78
2023/12/04 11:32:06;;;;;;;;;;;;;;;7.62;37.49;101310.19;5433911;32;34283;-75
2023/12/04 11:35:12;;;;;;;;;;;;;;;6.97;37.53;101312.63;5447019;32;34734;-68
2023/12/04 11:38:15;;;;;;;;;;;;;;;8.15;37.08;101294.59;5456774;32;36119;-74
2023/12/04 11:41:18;;;;;;;;;;;;;;;7.84;37.79;101281.09;5445303;32;33278;-79
2023/12/04 11:44:25;;;;;;;;;;;;;;;9.13;34.34;101279.88;5453104;32;34005;-67
2023/12/04 11:47:51;;;;;;;;;;;;;;;8.45;36.05;101281.97;5436954;32;33981;-75
2023/12/04 11:50:56;;;;;;;;;;;;;;;8.31;35.82;101283.94;5458071;32;35599;-75
2023/12/04 11:53:58;;;;;;;;;;;;;;;9.43;35.07;101272.31;5450023;32;34360;-72
2023/12/04 11:57:10;;;;;;;;;;;;;;;9.66;34.18;101266.59;5426387;32;35109;-72
2023/12/04 12:00:18;;;;;;;;;;;;;;;11.94;30.80;101253.69;5449478;32;34243;-73
2023/12/04 12:03:24;;;;;;;;;;;;;;;12.23;29.48;101251.88;5455584;32;34410;-74
2023/12/04 12:06:28;;;;;;;;;;;;;;;12.42;29.52;101253.87;5442057;32;34317;-71
2023/12/04 12:09:31;;;;;;;;;;;;;;;14.76;25.93;101246.87;5440065;32;34671;-70
2023/12/04 12:12:33;;;;;;;;;;;;;;;11.16;29.93;101253.31;5440578;32;37000;-71
2023/12/04 12:15:35;;;;;;;;;;;;;;;8.62;34.45;101258.97;5440289;32;35582;-78
2023/12/04 12:18:39;;;;;;;;;;;;;;;9.26;34.37;101253.41;5438685;32;34805;-70
2023/12/04 12:21:41;;;;;;;;;;;;;;;8.94;34.05;101241.78;5440859;32;34323;-77
2023/12/04 12:24:43;;;;;;;;;;;;;;;9.07;34.70;101239.81;5440541;32;35575;-70
2023/12/04 12:27:46;;;;;;;;;;;;;;;9.44;34.02;101225.06;5458617;32;34265;-80
2023/12/04 12:30:48;;;;;;;;;;;;;;;11.09;31.53;101209.66;5454544;32;35726;-72
2023/12/04 12:33:51;;;;;;;;;;;;;;;10.47;31.93;101209.56;5459275;32;34286;-72
2023/12/04 12:36:54;;;;;;;;;;;;;;;8.17;35.81;101196.81;5445163;32;35157;-70
2023/12/04 12:39:57;;;;;;;;;;;;;;;7.84;37.13;101204.31;5457916;32;34142;-74
2023/12/04 12:43:05;;;;;;;;;;;;;;;10.47;32.55;101191.16;5441160;32;33571;-70
2023/12/04 12:46:10;;;;;;;;;;;;;;;10.71;31.76;101187.91;5451288;32;34081;-71
2023/12/04 12:49:13;;;;;;;;;;;;;;;12.47;29.54;101174.62;5440492;32;35476;-71
2023/12/04 12:52:19;;;;;;;;;;;;;;;10.50;31.88;101185.84;5456572;32;35593;-71
2023/12/04 12:55:25;;;;;;;;;;;;;;;10.82;31.36;101185.84;5459733;32;34145;-71
2023/12/04 12:58:27;;;;;;;;;;;;;;;9.97;32.86;101190.63;5444330;32;34283;-87
2023/12/04 13:01:32;;;;;;;;;;;;;;;7.28;37.36;101208.59;5454475;32;35065;-71
2023/12/04 13:04:39;;;;;;;;;;;;;;;6.99;38.42;101199.34;5447383;32;33475;-84
2023/12/04 13:07:41;;;;;;;;;;;;;;;7.43;37.91;101191.84;5439605;32;34162;-69
2023/12/04 13:10:43;;;;;;;;;;;;;;;6.65;39.16;101184.91;5445817;32;34264;-71
2023/12/04 13:13:47;;;;;;;;;;;;;;;5.37;43.04;101203.22;5438194;32;34400;-79
2023/12/04 13:16:51;;;;;;;;;;;;;;;5.20;43.24;101198.97;5437833;32;34639;-66
2023/12/04 13:19:53;;;;;;;;;;;;;;;5.33;42.88;101198.03;5451774;32;35314;-80
2023/12/04 13:22:56;;;;;;;;;;;;;;;5.11;43.38;101195.53;5445490;32;34313;-70
2023/12/04 13:26:00;;;;;;;;;;;;;;;4.48;45.05;101193.94;5459526;32;34966;-71
2023/12/04 13:29:02;;;;;;;;;;;;;;;4.50;45.25;101200.00;5453528;32;34748;-70
2023/12/04 13:32:04;;;;;;;;;;;;;;;3.76;47.23;101188.75;5444387;32;34159;-74
2023/12/04 13:35:07;;;;;;;;;;;;;;;4.71;45.56;101189.59;5459214;32;34175;-75
2023/12/04 13:38:13;;;;;;;;;;;;;;;4.60;45.77;101189.59;5462632;32;34918;-71
2023/12/04 13:44:44;;;;;;;;;;;;;;;4.82;45.25;101172.16;5459136;32;33921;-72
2023/12/04 13:47:47;;;;;;;;;;;;;;;4.47;45.94;101179.22;5460388;32;36116;-81
2023/12/04 13:50:52;;;;;;;;;;;;;;;4.21;46.77;101180.09;5454357;32;35854;-77
2023/12/04 13:54:02;;;;;;;;;;;;;;;4.14;47.17;101180.97;5460959;32;34210;-68
2023/12/04 13:57:04;;;;;;;;;;;;;;;4.00;47.60;101178.38;5446956;32;34957;-70
2023/12/04 14:00:06;;;;;;;;;;;;;;;3.77;47.65;101172.28;5446176;32;35414;-74
2023/12/04 14:03:09;;;;;;;;;;;;;;;4.02;47.62;101165.34;5464507;32;34952;-69
2023/12/04 14:06:11;;;;;;;;;;;;;;;4.15;47.19;101171.44;5443987;32;34225;-75
2023/12/04 14:09:14;;;;;;;;;;;;;;;4.19;47.53;101171.44;5463562;32;34606;-72
2023/12/04 14:12:16;;;;;;;;;;;;;;;4.24;47.21;101167.06;5454440;32;35667;-68
2023/12/04 14:15:22;;;;;;;;;;;;;;;4.07;47.24;101180.09;5443884;32;34243;-76
2023/12/04 14:18:24;;;;;;;;;;;;;;;4.32;47.17;101180.09;5459099;32;35506;-70
2023/12/04 14:21:26;;;;;;;;;;;;;;;3.90;48.10;101171.41;5456235;32;35446;-71
2023/12/04 14:24:30;;;;;;;;;;;;;;;4.35;46.79;101165.34;5463280;32;34744;-68
2023/12/04 14:27:32;;;;;;;;;;;;;;;3.59;48.54;101160.09;5454033;32;35531;-71
2023/12/04 14:30:34;;;;;;;;;;;;;;;4.00;47.75;101160.16;5461671;32;33995;-73
2023/12/04 14:33:40;;;;;;;;;;;;;;;3.89;48.08;101153.22;5456189;32;34081;-73
2023/12/04 14:36:44;;;;;;;;;;;;;;;3.93;48.06;101148.03;5439023;32;36044;-72
2023/12/04 14:39:48;;;;;;;;;;;;;;;3.49;49.05;101142.78;5456426;32;34755;-76
2023/12/04 14:42:51;;;;;;;;;;;;;;;3.72;48.71;101138.47;5441385;32;35396;-78
2023/12/04 14:45:53;;;;;;;;;;;;;;;3.77;48.43;101139.34;5462227;32;34211;-80
2023/12/04 14:48:56;;;;;;;;;;;;;;;3.57;49.19;101130.66;5450807;32;34655;-77
2023/12/04 14:52:00;;;;;;;;;;;;;;;3.51;48.88;101131.50;5460090;32;34300;-80
2023/12/04 14:59:35;;;;;;;;;;;;;;;3.74;48.58;101133.28;5450542;32;35277;-84
2023/12/04 15:21:35;;;;;;;;;;;;;;;3.49;49.55;101137.59;5460558;32;34811;-70
2023/12/04 15:24:37;;;;;;;;;;;;;;;3.40;49.84;101129.75;5461068;32;35341;-75
2023/12/04 15:27:39;;;;;;;;;;;;;;;3.64;48.70;101121.13;5444410;32;35512;-73
2023/12/04 15:30:44;;;;;;;;;;;;;;;3.51;48.68;101118.50;5448314;32;34199;-71
2023/12/04 15:33:46;;;;;;;;;;;;;;;3.36;49.09;101112.44;5467541;32;35425;-72
2023/12/04 15:36:49;;;;;;;;;;;;;;;3.57;48.86;101109.84;5461691;32;34791;-69
2023/12/04 15:39:53;;;;;;;;;;;;;;;3.45;49.25;101102.91;5465621;32;34199;-75
2023/12/04 15:42:56;;;;;;;;;;;;;;;3.52;49.13;101106.38;5462292;32;35486;-73
2023/12/04 15:45:58;;;;;;;;;;;;;;;3.42;49.63;101107.25;5461666;32;35471;-75
2023/12/04 15:49:00;;;;;;;;;;;;;;;3.29;49.41;101108.09;5465750;32;35126;-68
2023/12/04 15:52:03;;;;;;;;;;;;;;;3.49;49.32;101103.78;5462939;32;35014;-79
2023/12/04 15:55:12;;;;;;;;;;;;;;;3.34;49.45;101121.94;5465752;32;34287;-71
2023/12/04 15:58:14;;;;;;;;;;;;;;;3.07;50.24;101109.75;5449350;32;34256;-69
2023/12/04 16:01:16;;;;;;;;;;;;;;;3.17;50.02;101103.72;5465248;32;34402;-79
2023/12/04 16:04:23;;;;;;;;;;;;;;;3.10;50.19;101101.97;5448668;32;34658;-73
2023/12/04 16:07:36;;;;;;;;;;;;;;;3.14;50.02;101103.69;5446568;32;34030;-72
2023/12/04 16:10:46;;;;;;;;;;;;;;;3.00;50.64;101111.47;5462676;32;34523;-71
2023/12/04 16:13:49;;;;;;;;;;;;;;;2.67;50.90;101105.28;5444352;32;34586;-69
2023/12/04 16:16:57;;;;;;;;;;;;;;;2.70;51.70;101112.19;5462624;32;34976;-71